Time;durP1;ratioP1;P1;durP2;ratioP2;P2;SDS_P1;SDS_P2;PMS_P1;PMS_P2;Temp;Humidity;BMP_temperature;BMP_pressure;BME280_temperature;BME280_humidity;BME280_pressure;Samples;Min_cycle;Max_cycle;Signal;HPM_P1;HPM_P2
2022/10/31 00:02:20;;;;;;;12.48;9.32;;;;;;;14.72;100.00;101968.22;5273847;28;20048;-72
2022/10/31 00:04:51;;;;;;;12.48;9.18;;;;;;;14.64;100.00;101965.38;5273875;28;20071;-71
2022/10/31 00:07:22;;;;;;;15.95;10.82;;;;;;;14.68;100.00;101973.88;5271692;28;20042;-71
2022/10/31 00:09:54;;;;;;;16.65;10.05;;;;;;;14.68;100.00;101973.88;5275405;28;20070;-71
2022/10/31 00:12:26;;;;;;;14.85;10.18;;;;;;;14.68;100.00;101974.72;5276245;28;20022;-73
2022/10/31 00:14:57;;;;;;;13.80;10.07;;;;;;;14.71;100.00;101977.09;5276193;28;20016;-71
2022/10/31 00:17:28;;;;;;;14.80;9.75;;;;;;;14.66;100.00;101971.38;5274369;28;20802;-71
2022/10/31 00:20:00;;;;;;;12.85;9.98;;;;;;;14.62;100.00;101972.59;5274979;28;20031;-71
2022/10/31 00:22:31;;;;;;;15.68;10.43;;;;;;;14.57;100.00;101974.78;5275732;28;20031;-71
2022/10/31 00:25:02;;;;;;;15.57;10.07;;;;;;;14.56;100.00;101979.22;5274215;28;20044;-71
2022/10/31 00:27:34;;;;;;;12.35;9.45;;;;;;;14.54;100.00;101989.03;5276170;28;20408;-71
2022/10/31 00:30:05;;;;;;;13.07;9.07;;;;;;;14.49;100.00;101980.69;5275185;28;20055;-71
2022/10/31 00:32:37;;;;;;;12.98;9.55;;;;;;;14.48;100.00;101979.00;5277456;28;20028;-71
2022/10/31 00:35:08;;;;;;;12.23;9.38;;;;;;;14.48;100.00;101975.53;5274717;28;20542;-71
2022/10/31 00:37:39;;;;;;;13.52;9.68;;;;;;;14.48;100.00;101971.09;5277073;28;20023;-71
2022/10/31 00:40:11;;;;;;;15.70;9.10;;;;;;;14.46;100.00;101973.00;5277707;28;20024;-73
2022/10/31 00:42:43;;;;;;;13.52;9.68;;;;;;;14.44;100.00;101961.75;5278683;28;20035;-70
2022/10/31 00:45:14;;;;;;;13.65;9.48;;;;;;;14.43;100.00;101961.88;5277669;28;20032;-73
2022/10/31 00:47:45;;;;;;;11.75;9.13;;;;;;;14.42;100.00;101973.41;5279121;28;20121;-72
2022/10/31 00:50:17;;;;;;;11.75;8.57;;;;;;;14.35;100.00;101973.88;5279421;28;20020;-71
2022/10/31 00:52:48;;;;;;;12.88;9.38;;;;;;;14.31;100.00;101963.72;5280236;28;20032;-71
2022/10/31 00:55:19;;;;;;;13.02;8.93;;;;;;;14.25;100.00;101961.63;5278742;28;20497;-72
2022/10/31 00:57:50;;;;;;;13.57;9.35;;;;;;;14.23;100.00;101964.38;5279246;28;20408;-70
2022/10/31 01:00:22;;;;;;;14.52;10.05;;;;;;;14.18;100.00;101973.63;5279020;28;20025;-71
2022/10/31 01:02:53;;;;;;;14.27;9.30;;;;;;;14.20;100.00;101969.06;5279598;28;20021;-72
2022/10/31 01:05:24;;;;;;;12.30;9.65;;;;;;;14.17;100.00;101971.94;5278842;28;20675;-71
2022/10/31 01:07:56;;;;;;;12.13;9.57;;;;;;;14.15;100.00;101955.44;5276449;28;20016;-71
2022/10/31 01:10:27;;;;;;;15.50;9.48;;;;;;;14.14;100.00;101951.13;5279607;28;20023;-71
2022/10/31 01:12:58;;;;;;;14.85;10.27;;;;;;;14.07;100.00;101937.59;5276870;28;20486;-72
2022/10/31 01:15:29;;;;;;;12.60;9.38;;;;;;;14.00;100.00;101934.63;5276853;28;20386;-72
2022/10/31 01:18:01;;;;;;;14.02;9.52;;;;;;;14.02;100.00;101937.16;5279327;28;20051;-71
2022/10/31 01:20:32;;;;;;;13.07;9.82;;;;;;;14.02;100.00;101940.63;5279041;28;20149;-72
2022/10/31 01:23:03;;;;;;;12.52;9.52;;;;;;;13.95;100.00;101949.16;5279564;28;20050;-71
2022/10/31 01:25:34;;;;;;;13.98;8.98;;;;;;;13.91;100.00;101945.94;5276540;28;20644;-71
2022/10/31 01:28:06;;;;;;;11.85;9.57;;;;;;;13.89;100.00;101950.47;5279920;28;20023;-71
2022/10/31 01:30:37;;;;;;;10.88;8.70;;;;;;;13.87;100.00;101947.97;5277169;28;20025;-72
2022/10/31 01:33:08;;;;;;;12.02;9.40;;;;;;;13.93;100.00;101957.16;5278763;28;20062;-71
2022/10/31 01:35:39;;;;;;;11.52;9.13;;;;;;;13.87;100.00;101960.31;5277823;28;20090;-71
2022/10/31 01:38:11;;;;;;;11.45;9.23;;;;;;;13.81;100.00;101958.16;5276820;28;20027;-74
2022/10/31 01:40:42;;;;;;;13.57;8.65;;;;;;;13.72;100.00;101954.50;5279702;28;20134;-71
2022/10/31 01:43:14;;;;;;;11.50;9.45;;;;;;;13.71;100.00;101959.88;5277052;28;20021;-71
2022/10/31 01:45:52;;;;;;;15.68;9.38;;;;;;;13.80;100.00;101959.97;5274975;28;20028;-71
2022/10/31 01:48:27;;;;;;;12.80;9.63;;;;;;;13.69;100.00;101964.44;5277010;28;20075;-71
2022/10/31 01:50:59;;;;;;;13.15;9.75;;;;;;;13.51;100.00;101953.56;5276857;28;20121;-71
2022/10/31 01:53:31;;;;;;;12.25;9.50;;;;;;;13.46;100.00;101953.94;5278532;28;20024;-73
2022/10/31 01:56:03;;;;;;;13.33;10.63;;;;;;;13.54;100.00;101955.97;5277893;28;20628;-71
2022/10/31 01:58:35;;;;;;;11.77;9.57;;;;;;;13.49;100.00;101947.59;5274703;28;20048;-72
2022/10/31 02:01:06;;;;;;;14.10;10.07;;;;;;;13.52;100.00;101952.59;5279422;28;20167;-71
2022/10/31 02:03:37;;;;;;;14.48;10.45;;;;;;;13.51;100.00;101943.88;5274560;28;20366;-71
2022/10/31 02:06:18;;;;;;;16.25;10.90;;;;;;;13.59;100.00;101944.09;5277792;28;20042;-71
2022/10/31 02:08:51;;;;;;;15.52;10.82;;;;;;;13.50;100.00;101938.72;5278218;28;20030;-71
2022/10/31 02:11:22;;;;;;;13.52;10.18;;;;;;;13.53;100.00;101941.13;5277010;28;20342;-71
2022/10/31 02:13:54;;;;;;;13.20;10.27;;;;;;;13.49;100.00;101942.34;5278335;28;20039;-71
2022/10/31 02:16:26;;;;;;;13.80;9.80;;;;;;;13.39;100.00;101934.31;5275012;28;20032;-71
2022/10/31 02:18:57;;;;;;;14.38;10.38;;;;;;;13.42;100.00;101935.88;5278527;28;20044;-71
2022/10/31 02:21:49;;;;;;;11.63;10.25;;;;;;;13.59;100.00;101938.00;5277495;28;20040;-73
2022/10/31 02:24:44;;;;;;;15.10;10.18;;;;;;;13.59;100.00;101930.09;5277946;28;20169;-71
2022/10/31 02:27:57;;;;;;;13.77;9.85;;;;;;;13.67;100.00;101926.84;5277647;28;20173;-73
2022/10/31 02:30:40;;;;;;;16.48;9.63;;;;;;;13.36;100.00;101935.38;5228381;28;20076;-71
2022/10/31 02:33:25;;;;;;;12.05;8.95;;;;;;;13.35;100.00;101935.53;5277629;28;20032;-71
2022/10/31 02:36:10;;;;;;;12.15;9.60;;;;;;;13.30;100.00;101932.44;5277145;28;20025;-71
2022/10/31 02:39:15;;;;;;;12.27;9.63;;;;;;;13.32;100.00;101939.22;5275642;28;20020;-71
2022/10/31 02:42:10;;;;;;;13.13;9.88;;;;;;;13.02;100.00;101928.44;5277919;28;20075;-71
2022/10/31 02:44:51;;;;;;;13.65;9.30;;;;;;;13.05;100.00;101928.22;5245339;28;21079;-70
2022/10/31 02:47:28;;;;;;;11.18;9.10;;;;;;;12.99;100.00;101936.56;5276505;28;20044;-73
2022/10/31 02:50:04;;;;;;;13.93;9.40;;;;;;;12.89;100.00;101924.13;5290966;23;20101;-77
2022/10/31 02:52:36;;;;;;;12.32;9.15;;;;;;;12.84;100.00;101928.94;5279138;28;20107;-77
2022/10/31 02:55:31;;;;;;;12.95;9.73;;;;;;;12.96;100.00;101932.41;5275689;28;20448;-79
2022/10/31 02:58:08;;;;;;;12.15;10.18;;;;;;;12.84;100.00;101934.19;5275770;28;20028;-77
2022/10/31 03:01:09;;;;;;;15.90;9.63;;;;;;;13.17;100.00;101929.88;5274473;28;20073;-77
2022/10/31 03:04:12;;;;;;;12.75;9.10;;;;;;;13.15;100.00;101937.06;5276647;28;20032;-77
2022/10/31 03:06:54;;;;;;;11.98;9.07;;;;;;;13.01;100.00;101932.03;5275618;28;20024;-77
2022/10/31 03:09:33;;;;;;;10.13;8.63;;;;;;;12.96;100.00;101931.56;5278303;28;20421;-77
2022/10/31 03:12:13;;;;;;;13.35;8.75;;;;;;;12.94;100.00;101938.72;5274435;28;20477;-77
2022/10/31 03:14:56;;;;;;;10.40;9.27;;;;;;;12.94;100.00;101929.03;5276091;28;20489;-77
2022/10/31 03:17:36;;;;;;;12.73;9.68;;;;;;;12.94;100.00;101938.72;5274842;28;20032;-77
2022/10/31 03:20:10;;;;;;;14.25;9.07;;;;;;;12.76;100.00;101922.56;5273761;28;20414;-77
2022/10/31 03:22:43;;;;;;;14.30;9.75;;;;;;;12.73;100.00;101931.53;5277410;28;20050;-79
2022/10/31 03:25:16;;;;;;;13.75;9.32;;;;;;;12.69;100.00;101926.63;5275092;28;20024;-77
2022/10/31 03:27:50;;;;;;;13.88;9.68;;;;;;;12.72;100.00;101935.09;5274961;28;20029;-77
2022/10/31 03:30:21;;;;;;;13.02;9.48;;;;;;;12.69;100.00;101935.38;5276708;28;20374;-77
2022/10/31 03:32:56;;;;;;;10.98;9.70;;;;;;;12.73;100.00;101930.69;5273269;28;20050;-78
2022/10/31 03:35:30;;;;;;;10.68;9.30;;;;;;;12.71;100.00;101940.50;5275473;28;20674;-79
2022/10/31 03:38:02;;;;;;;12.75;8.77;;;;;;;12.63;100.00;101931.41;5276388;28;20435;-76
2022/10/31 03:40:36;;;;;;;11.68;10.32;;;;;;;12.65;100.00;101928.63;5275441;28;20086;-76
2022/10/31 03:43:12;;;;;;;11.38;9.73;;;;;;;12.65;100.00;101936.53;5275574;28;20115;-76
2022/10/31 03:45:46;;;;;;;13.25;10.05;;;;;;;12.60;100.00;101928.16;5275763;28;20036;-76
2022/10/31 03:48:20;;;;;;;11.93;9.00;;;;;;;12.55;100.00;101933.78;5274768;28;20036;-76
2022/10/31 03:51:03;;;;;;;13.90;9.68;;;;;;;12.60;100.00;101929.00;5275498;28;20043;-76
2022/10/31 03:53:40;;;;;;;13.88;10.82;;;;;;;12.54;100.00;101920.72;5274854;28;20032;-76
2022/10/31 03:56:41;;;;;;;14.52;9.73;;;;;;;12.79;100.00;101925.78;5276358;28;20028;-76
2022/10/31 03:59:50;;;;;;;12.77;9.50;;;;;;;12.82;100.00;101922.94;5272325;28;20049;-76
2022/10/31 04:02:25;;;;;;;12.90;9.60;;;;;;;12.49;100.00;101917.63;5243102;28;20131;-76
2022/10/31 04:04:57;;;;;;;13.35;9.57;;;;;;;12.43;100.00;101918.94;5275246;28;20031;-76
2022/10/31 04:07:34;;;;;;;13.57;9.65;;;;;;;12.47;100.00;101924.81;5276183;28;20071;-76
2022/10/31 04:10:09;;;;;;;12.95;9.27;;;;;;;12.43;100.00;101926.81;5274789;28;20388;-76
2022/10/31 04:12:43;;;;;;;11.77;10.13;;;;;;;12.44;100.00;101927.66;5277748;28;20477;-76
2022/10/31 04:15:14;;;;;;;13.52;10.05;;;;;;;12.41;100.00;101932.19;5277629;28;20444;-76
2022/10/31 04:17:49;;;;;;;11.52;10.18;;;;;;;12.45;100.00;101932.78;5278936;28;20078;-76
2022/10/31 04:20:30;;;;;;;13.82;9.93;;;;;;;12.51;100.00;101931.50;5279649;28;20021;-76
2022/10/31 04:23:02;;;;;;;12.50;9.82;;;;;;;12.35;100.00;101932.66;5280501;28;20021;-76
2022/10/31 04:25:33;;;;;;;14.80;9.20;;;;;;;12.39;100.00;101926.22;5279032;28;20874;-76
2022/10/31 04:28:04;;;;;;;15.07;10.40;;;;;;;12.45;100.00;101934.59;5278664;28;20044;-76
2022/10/31 04:30:36;;;;;;;13.20;9.45;;;;;;;12.43;100.00;101928.63;5280095;28;20036;-76
2022/10/31 04:33:07;;;;;;;13.77;10.45;;;;;;;12.45;100.00;101934.59;5280496;28;20089;-76
2022/10/31 04:35:38;;;;;;;15.13;10.40;;;;;;;12.46;100.00;101934.44;5279153;28;20027;-76
2022/10/31 04:38:09;;;;;;;13.20;9.57;;;;;;;12.50;100.00;101933.28;5279981;28;20020;-76
2022/10/31 04:40:41;;;;;;;13.45;10.02;;;;;;;12.47;100.00;101933.53;5280513;28;20025;-76
2022/10/31 04:43:12;;;;;;;15.23;9.98;;;;;;;12.54;100.00;101932.09;5279305;28;20051;-76
2022/10/31 04:45:43;;;;;;;14.43;10.60;;;;;;;12.61;100.00;101938.59;5277865;28;20032;-76
2022/10/31 04:48:15;;;;;;;16.83;10.07;;;;;;;12.65;100.00;101931.28;5279296;28;20032;-76
2022/10/31 04:50:46;;;;;;;14.25;9.90;;;;;;;12.60;100.00;101925.53;5279801;28;20040;-76
2022/10/31 04:53:17;;;;;;;13.82;10.68;;;;;;;12.60;100.00;101925.53;5278999;28;20039;-76
2022/10/31 04:55:48;;;;;;;12.70;10.35;;;;;;;12.54;100.00;101928.63;5279101;28;20020;-76
2022/10/31 04:58:20;;;;;;;15.48;11.13;;;;;;;12.56;100.00;101930.19;5279366;28;20035;-76
2022/10/31 05:00:53;;;;;;;13.80;10.60;;;;;;;12.47;100.00;101930.91;5277929;28;20024;-76
2022/10/31 05:03:24;;;;;;;13.52;10.68;;;;;;;12.42;100.00;101919.88;5279706;28;20043;-76
2022/10/31 05:05:55;;;;;;;12.60;10.80;;;;;;;12.43;100.00;101924.19;5277243;28;20021;-76
2022/10/31 05:08:26;;;;;;;14.02;10.50;;;;;;;12.37;100.00;101922.84;5278408;28;20520;-75
2022/10/31 05:11:04;;;;;;;13.13;10.13;;;;;;;12.49;100.00;101918.47;5277191;28;20017;-75
2022/10/31 05:13:35;;;;;;;16.50;11.18;;;;;;;12.30;100.00;101918.16;5278262;28;20060;-75
2022/10/31 05:16:07;;;;;;;11.90;10.60;;;;;;;12.34;100.00;101917.81;5277907;28;20101;-75
2022/10/31 05:18:38;;;;;;;13.20;10.43;;;;;;;12.30;100.00;101920.78;5279843;28;20385;-75
2022/10/31 05:21:09;;;;;;;14.52;10.63;;;;;;;12.28;100.00;101920.94;5277499;28;20035;-75
2022/10/31 05:23:41;;;;;;;12.50;10.55;;;;;;;12.24;100.00;101921.28;5277956;28;20032;-75
2022/10/31 05:26:12;;;;;;;12.95;10.15;;;;;;;12.20;100.00;101911.91;5279267;28;20029;-75
2022/10/31 05:28:43;;;;;;;15.13;10.18;;;;;;;12.09;100.00;101902.25;5275202;28;20032;-75
2022/10/31 05:31:14;;;;;;;14.90;10.68;;;;;;;12.10;100.00;101902.09;5278534;28;20052;-75
2022/10/31 05:33:46;;;;;;;12.77;9.90;;;;;;;12.19;100.00;101913.72;5279727;28;20078;-75
2022/10/31 05:36:17;;;;;;;13.80;10.73;;;;;;;12.16;100.00;101913.97;5277462;28;20535;-75
2022/10/31 05:38:48;;;;;;;14.63;10.45;;;;;;;12.16;100.00;101908.72;5279648;28;20034;-75
2022/10/31 05:41:19;;;;;;;15.45;11.18;;;;;;;12.13;100.00;101907.13;5278404;28;20043;-75
2022/10/31 05:43:51;;;;;;;14.05;10.82;;;;;;;12.10;100.00;101896.03;5277642;28;20052;-75
2022/10/31 05:46:22;;;;;;;12.30;10.65;;;;;;;12.10;100.00;101893.41;5278802;28;20078;-75
2022/10/31 05:48:53;;;;;;;13.07;11.27;;;;;;;12.10;100.00;101896.03;5277930;28;20027;-75
2022/10/31 05:51:24;;;;;;;13.02;10.70;;;;;;;12.09;100.00;101896.97;5278328;28;20090;-75
2022/10/31 05:53:56;;;;;;;15.00;10.73;;;;;;;12.10;100.00;101899.47;5277718;28;20032;-75
2022/10/31 05:56:27;;;;;;;13.07;10.93;;;;;;;12.09;100.00;101899.59;5277861;28;20474;-75
2022/10/31 05:58:58;;;;;;;13.85;11.80;;;;;;;12.09;100.00;101902.25;5279151;28;20481;-75
2022/10/31 06:01:29;;;;;;;13.27;10.35;;;;;;;12.05;100.00;101896.38;5275702;28;20484;-75
2022/10/31 06:04:01;;;;;;;17.50;11.75;;;;;;;12.02;100.00;101885.25;5279136;28;20020;-75
2022/10/31 06:06:32;;;;;;;15.50;11.23;;;;;;;12.03;100.00;101886.91;5277004;28;20572;-75
2022/10/31 06:09:03;;;;;;;16.35;11.35;;;;;;;12.01;100.00;101881.78;5277148;28;20470;-75
2022/10/31 06:11:34;;;;;;;21.45;12.85;;;;;;;12.07;100.00;101872.59;5276876;28;20024;-75
2022/10/31 06:14:06;;;;;;;18.38;13.38;;;;;;;12.05;100.00;101877.16;5278129;28;20016;-74
2022/10/31 06:16:37;;;;;;;18.40;13.23;;;;;;;12.02;100.00;101877.38;5277001;28;20495;-75
2022/10/31 06:19:09;;;;;;;17.48;11.73;;;;;;;12.00;100.00;101879.25;5276982;28;20482;-74
2022/10/31 06:21:40;;;;;;;19.52;12.10;;;;;;;11.89;100.00;101870.41;5275837;28;20542;-75
2022/10/31 06:24:11;;;;;;;16.88;13.07;;;;;;;11.92;100.00;101885.91;5277080;28;20024;-75
2022/10/31 06:26:42;;;;;;;14.48;11.73;;;;;;;11.89;100.00;101877.44;5275255;28;20079;-75
2022/10/31 06:29:14;;;;;;;14.75;11.98;;;;;;;11.93;100.00;101884.13;5274403;28;20764;-74
2022/10/31 06:31:45;;;;;;;14.38;11.43;;;;;;;11.89;100.00;101875.66;5275459;28;20024;-75
2022/10/31 06:34:16;;;;;;;16.98;12.13;;;;;;;11.92;100.00;101887.72;5275552;28;20070;-75
2022/10/31 06:36:48;;;;;;;18.13;12.07;;;;;;;11.95;100.00;101897.16;5268502;28;20373;-75
2022/10/31 06:39:19;;;;;;;16.52;12.80;;;;;;;11.91;100.00;101886.88;5277234;28;20461;-75
2022/10/31 06:41:50;;;;;;;14.50;11.82;;;;;;;11.95;100.00;101884.03;5276504;28;20028;-75
2022/10/31 06:44:21;;;;;;;16.85;12.15;;;;;;;11.97;100.00;101892.63;5274508;28;20025;-75
2022/10/31 06:46:53;;;;;;;17.63;13.32;;;;;;;11.96;100.00;101885.69;5277022;28;20027;-74
2022/10/31 06:49:24;;;;;;;16.13;12.85;;;;;;;11.97;100.00;101882.09;5276446;28;20047;-75
2022/10/31 06:51:55;;;;;;;15.07;12.32;;;;;;;11.99;100.00;101886.31;5275586;28;20501;-74
2022/10/31 06:54:27;;;;;;;18.88;13.73;;;;;;;12.07;100.00;101891.00;5275686;28;20579;-75
2022/10/31 06:56:58;;;;;;;19.92;14.50;;;;;;;12.01;100.00;101873.91;5274448;28;20020;-74
2022/10/31 06:59:29;;;;;;;19.45;14.20;;;;;;;12.05;100.00;101875.34;5271509;28;20441;-75
2022/10/31 07:02:00;;;;;;;19.33;13.55;;;;;;;12.13;100.00;101894.00;5273211;28;20059;-75
2022/10/31 07:04:32;;;;;;;18.52;13.70;;;;;;;12.15;100.00;101886.84;5272971;28;20059;-75
2022/10/31 07:07:03;;;;;;;21.23;13.38;;;;;;;12.18;100.00;101888.41;5274037;28;20028;-75
2022/10/31 07:09:35;;;;;;;19.90;14.40;;;;;;;12.22;100.00;101884.59;5276118;28;20111;-74
2022/10/31 07:12:06;;;;;;;18.95;13.73;;;;;;;12.29;100.00;101888.44;5274773;28;20548;-75
2022/10/31 07:14:37;;;;;;;20.60;14.02;;;;;;;12.35;100.00;101882.72;5275318;28;20529;-75
2022/10/31 07:17:09;;;;;;;16.70;14.30;;;;;;;12.41;100.00;101890.13;5275098;28;20115;-75
2022/10/31 07:19:40;;;;;;;21.40;14.43;;;;;;;12.47;100.00;101888.84;5272988;28;20021;-75
2022/10/31 07:22:11;;;;;;;20.70;14.77;;;;;;;12.45;100.00;101888.09;5275510;28;20481;-75
2022/10/31 07:24:42;;;;;;;17.38;14.52;;;;;;;12.54;100.00;101894.44;5275427;28;20051;-74
2022/10/31 07:27:14;;;;;;;20.50;14.95;;;;;;;12.61;100.00;101893.03;5275682;28;20020;-75
2022/10/31 07:29:45;;;;;;;25.48;15.68;;;;;;;12.60;100.00;101897.44;5273029;28;20044;-75
2022/10/31 07:32:16;;;;;;;22.00;15.68;;;;;;;12.70;100.00;101904.66;5274832;28;20029;-75
2022/10/31 07:34:47;;;;;;;19.00;14.57;;;;;;;12.70;100.00;101902.84;5274085;28;20030;-75
2022/10/31 07:37:19;;;;;;;17.52;14.73;;;;;;;12.81;100.00;101899.41;5272032;28;20078;-75
2022/10/31 07:39:50;;;;;;;20.45;15.18;;;;;;;12.84;100.00;101904.41;5274037;28;20020;-75
2022/10/31 07:42:21;;;;;;;22.98;16.35;;;;;;;12.95;100.00;101898.31;5272096;28;20073;-75
2022/10/31 07:44:52;;;;;;;24.10;16.67;;;;;;;12.98;100.00;101904.16;5270601;28;20473;-75
2022/10/31 07:47:24;;;;;;;22.45;17.30;;;;;;;13.01;100.00;101898.66;5271296;28;20485;-74
2022/10/31 07:49:56;;;;;;;24.17;17.60;;;;;;;13.09;100.00;101898.91;5274344;28;20044;-74
2022/10/31 07:52:27;;;;;;;24.13;17.20;;;;;;;13.08;100.00;101901.66;5275498;28;20051;-75
2022/10/31 07:54:58;;;;;;;21.98;17.75;;;;;;;13.15;100.00;101908.13;5273252;28;20028;-75
2022/10/31 07:57:30;;;;;;;21.83;17.48;;;;;;;13.17;100.00;101906.19;5271359;28;20119;-75
2022/10/31 08:00:03;;;;;;;25.08;18.85;;;;;;;13.24;100.00;101902.16;5274619;28;20378;-75
2022/10/31 08:02:35;;;;;;;24.58;18.80;;;;;;;13.32;100.00;101897.13;5272198;28;20021;-75
2022/10/31 08:05:07;;;;;;;25.75;17.95;;;;;;;13.26;100.00;101896.75;5273944;28;20530;-75
2022/10/31 08:07:38;;;;;;;26.33;19.02;;;;;;;13.39;100.00;101900.09;5274732;28;20393;-75
2022/10/31 08:10:09;;;;;;;26.20;21.30;;;;;;;13.45;100.00;101897.00;5274128;28;20031;-75
2022/10/31 08:12:40;;;;;;;24.77;20.88;;;;;;;13.61;100.00;101907.13;5272086;28;20115;-75
2022/10/31 08:15:12;;;;;;;31.02;21.27;;;;;;;13.70;100.00;101905.53;5274482;28;20032;-75
2022/10/31 08:17:43;;;;;;;28.80;21.38;;;;;;;13.70;100.00;101905.53;5274228;28;20074;-75
2022/10/31 08:20:14;;;;;;;33.47;23.50;;;;;;;13.88;100.00;101899.59;5270830;28;20082;-75
2022/10/31 08:22:54;;;;;;;32.80;22.65;;;;;;;14.03;100.00;101881.69;5271214;28;20063;-75
2022/10/31 08:25:26;;;;;;;31.80;23.23;;;;;;;13.98;100.00;101880.38;5273536;28;20043;-75
2022/10/31 08:27:58;;;;;;;30.65;23.27;;;;;;;14.08;100.00;101891.84;5273438;28;20032;-75
2022/10/31 08:30:32;;;;;;;31.27;23.25;;;;;;;14.20;100.00;101911.06;5271526;28;20358;-75
2022/10/31 08:33:03;;;;;;;33.92;24.63;;;;;;;14.31;100.00;101897.84;5272289;28;20401;-75
2022/10/31 08:35:35;;;;;;;31.95;25.50;;;;;;;14.42;100.00;101883.75;5271510;28;20028;-75
2022/10/31 08:38:09;;;;;;;40.40;26.67;;;;;;;14.51;100.00;101888.28;5268625;28;20038;-75
2022/10/31 08:40:41;;;;;;;35.33;25.88;;;;;;;14.54;100.00;101873.00;5270529;28;20029;-75
2022/10/31 08:43:14;;;;;;;36.58;25.52;;;;;;;14.59;100.00;101851.56;5272170;28;20036;-75
2022/10/31 08:45:48;;;;;;;35.33;25.48;;;;;;;14.63;100.00;101836.31;5273787;28;20055;-75
2022/10/31 08:48:20;;;;;;;33.67;24.48;;;;;;;14.62;100.00;101843.34;5272093;28;20452;-75
2022/10/31 08:50:57;;;;;;;34.08;25.40;;;;;;;14.71;100.00;101834.66;5298521;22;20056;-73
2022/10/31 08:53:29;;;;;;;31.85;25.23;;;;;;;14.72;100.00;101846.03;5274047;28;20044;-73
2022/10/31 08:56:00;;;;;;;29.83;23.30;;;;;;;14.74;100.00;101873.97;5276376;28;20060;-73
2022/10/31 08:58:32;;;;;;;33.53;24.35;;;;;;;14.83;100.00;101872.34;5278822;28;20115;-73
2022/10/31 09:01:03;;;;;;;30.83;24.45;;;;;;;14.88;100.00;101870.13;5279627;28;20407;-73
2022/10/31 09:03:34;;;;;;;34.22;23.83;;;;;;;14.91;100.00;101867.22;5280711;28;20532;-73
2022/10/31 09:06:08;;;;;;;31.42;23.98;;;;;;;14.95;100.00;101859.88;5280868;28;20025;-73
2022/10/31 09:08:39;;;;;;;33.22;24.95;;;;;;;15.04;100.00;101864.38;5279083;28;20036;-73
2022/10/31 09:11:11;;;;;;;28.17;23.40;;;;;;;15.04;100.00;101867.84;5276041;28;20024;-73
2022/10/31 09:13:42;;;;;;;28.30;23.92;;;;;;;15.08;100.00;101863.97;5281670;28;20027;-73
2022/10/31 09:16:13;;;;;;;29.95;24.73;;;;;;;15.16;100.00;101868.56;5276725;28;20079;-73
2022/10/31 09:18:44;;;;;;;31.00;24.38;;;;;;;15.19;100.00;101867.44;5279136;28;20112;-73
2022/10/31 09:21:16;;;;;;;31.00;23.90;;;;;;;15.28;100.00;101859.56;5280758;28;20040;-72
2022/10/31 09:23:47;;;;;;;30.77;23.92;;;;;;;15.35;100.00;101836.09;5279569;28;20065;-73
2022/10/31 09:26:18;;;;;;;32.55;24.85;;;;;;;15.41;100.00;101832.88;5279264;28;20033;-73
2022/10/31 09:28:49;;;;;;;35.20;23.90;;;;;;;15.45;100.00;101826.34;5277581;28;20128;-73
2022/10/31 09:31:21;;;;;;;32.13;25.52;;;;;;;15.50;100.00;101820.69;5280422;28;20025;-73
2022/10/31 09:33:53;;;;;;;33.42;25.35;;;;;;;15.51;100.00;101819.69;5279459;28;20029;-73
2022/10/31 09:36:24;;;;;;;34.63;26.02;;;;;;;15.58;100.00;101805.78;5279962;28;20074;-73
2022/10/31 09:38:56;;;;;;;31.02;24.15;;;;;;;15.56;100.00;101785.75;5277225;28;20405;-73
2022/10/31 09:41:55;;;;;;;32.72;23.92;;;;;;;15.84;100.00;101793.88;5280052;28;20473;-73
2022/10/31 09:44:54;;;;;;;30.23;24.60;;;;;;;15.90;100.00;101803.84;5280650;28;20030;-73
2022/10/31 09:47:56;;;;;;;31.38;24.95;;;;;;;15.86;100.00;101813.03;5260216;28;20543;-73
2022/10/31 09:50:42;;;;;;;30.25;23.52;;;;;;;15.88;100.00;101811.09;5275326;28;20033;-73
2022/10/31 09:53:32;;;;;;;35.45;25.52;;;;;;;15.95;100.00;101801.63;5274711;28;20508;-72
2022/10/31 09:56:13;;;;;;;34.45;25.42;;;;;;;15.90;100.00;101794.09;5280921;28;20119;-74
2022/10/31 09:58:47;;;;;;;31.83;24.95;;;;;;;15.80;100.00;101794.13;5277397;28;20507;-75
2022/10/31 10:01:46;;;;;;;33.38;25.73;;;;;;;15.95;100.00;101809.56;5278058;28;20025;-75
2022/10/31 10:04:36;;;;;;;32.40;25.80;;;;;;;15.99;100.00;101788.00;5271924;28;20358;-75
2022/10/31 10:07:14;;;;;;;33.88;26.13;;;;;;;15.97;100.00;101768.78;5276499;28;20078;-75
2022/10/31 10:09:46;;;;;;;31.80;24.77;;;;;;;15.98;100.00;101761.69;5276396;28;20017;-75
2022/10/31 10:12:35;;;;;;;35.33;25.42;;;;;;;16.07;100.00;101768.78;5274226;28;20409;-75
2022/10/31 10:15:37;;;;;;;32.47;24.88;;;;;;;16.37;100.00;101767.69;5275635;28;20505;-75
2022/10/31 10:18:20;;;;;;;31.83;25.38;;;;;;;16.39;100.00;101763.06;5273596;28;20051;-75
2022/10/31 10:21:04;;;;;;;29.83;24.05;;;;;;;16.29;100.00;101768.41;5274554;28;20032;-75
2022/10/31 10:24:11;;;;;;;31.40;23.55;;;;;;;16.54;100.00;101744.91;5273941;28;20036;-75
2022/10/31 10:27:10;;;;;;;34.30;24.85;;;;;;;16.44;100.00;101738.84;5275993;28;20489;-75
2022/10/31 10:29:52;;;;;;;35.85;27.88;;;;;;;16.41;100.00;101733.84;5277291;28;20033;-75
2022/10/31 10:32:27;;;;;;;36.38;26.95;;;;;;;16.39;100.00;101730.50;5277175;28;20119;-75
2022/10/31 10:35:17;;;;;;;35.88;26.05;;;;;;;16.58;100.00;101750.75;5276041;28;20029;-75
2022/10/31 10:37:52;;;;;;;37.38;25.85;;;;;;;16.53;100.00;101753.84;5276753;28;20595;-75
2022/10/31 10:40:27;;;;;;;43.58;27.63;;;;;;;16.53;100.00;101759.13;5277077;28;20032;-75
2022/10/31 10:43:36;;;;;;;39.92;27.30;;;;;;;16.85;100.00;101755.22;5278902;28;20095;-75
2022/10/31 10:49:32;;;;;;;39.23;27.50;;;;;;;16.94;100.00;101746.41;5275724;28;20036;-75
2022/10/31 10:52:15;;;;;;;46.65;29.48;;;;;;;16.91;100.00;101736.09;5276439;28;20045;-75
2022/10/31 10:55:10;;;;;;;38.47;27.48;;;;;;;16.96;100.00;101729.38;5276609;28;20024;-75
2022/10/31 10:57:56;;;;;;;38.35;27.50;;;;;;;17.08;100.00;101727.31;5277493;28;20017;-75
2022/10/31 11:00:31;;;;;;;39.13;26.58;;;;;;;16.97;100.00;101722.25;5276597;28;20123;-75
2022/10/31 11:03:04;;;;;;;39.80;27.83;;;;;;;17.00;100.00;101735.19;5276102;28;20044;-75
2022/10/31 11:05:52;;;;;;;37.92;29.13;;;;;;;17.23;100.00;101736.41;5277657;28;20034;-75
2022/10/31 11:08:32;;;;;;;40.92;28.17;;;;;;;17.19;100.00;101731.56;5275458;28;20051;-75
2022/10/31 11:11:19;;;;;;;39.85;28.48;;;;;;;17.18;100.00;101730.75;5277458;28;20469;-75
2022/10/31 11:13:56;;;;;;;38.05;27.65;;;;;;;17.27;100.00;101718.41;5277515;28;20032;-75
2022/10/31 11:16:41;;;;;;;39.28;28.65;;;;;;;17.48;100.00;101716.25;5276967;28;20036;-75
2022/10/31 11:19:14;;;;;;;36.30;28.42;;;;;;;17.42;100.00;101711.56;5272396;28;20082;-75
2022/10/31 11:21:46;;;;;;;;;;;;;;;18.07;100.00;101702.41;5277627;28;20023;-75
2022/10/31 11:24:27;;;;;;;36.25;26.13;;;;;;;17.65;100.00;101679.25;5277642;28;19912;-75
2022/10/31 11:27:14;;;;;;;36.40;26.67;;;;;;;17.75;100.00;101672.09;5275707;28;20028;-75
2022/10/31 11:29:45;;;;;;;44.65;29.33;;;;;;;17.52;100.00;101677.03;5277090;28;20575;-75
2022/10/31 11:32:23;;;;;;;35.35;25.95;;;;;;;17.63;100.00;101670.66;5275670;28;20098;-74
2022/10/31 11:34:58;;;;;;;35.38;25.98;;;;;;;17.67;100.00;101656.09;5276894;28;20045;-74
2022/10/31 11:37:35;;;;;;;35.13;26.25;;;;;;;17.70;100.00;101650.50;5277074;28;20503;-73
2022/10/31 11:40:15;;;;;;;34.55;25.80;;;;;;;17.67;100.00;101646.34;5275631;28;20021;-73
2022/10/31 11:42:48;;;;;;;33.40;24.25;;;;;;;17.72;100.00;101640.56;5277266;28;20689;-74
2022/10/31 11:45:22;;;;;;;31.05;22.67;;;;;;;17.84;100.00;101634.06;5274977;28;20115;-74